createdAt,value
2022-08-08T00:00:50.369Z,18.41
2022-08-08T00:03:20.111Z,18.27
2022-08-08T00:06:12.570Z,18.27
2022-08-08T00:08:51.907Z,18.34
2022-08-08T00:12:03.100Z,18.37
2022-08-08T00:14:57.409Z,18.40
2022-08-08T00:18:01.783Z,18.06
2022-08-08T00:20:28.663Z,18.09
2022-08-08T00:23:00.814Z,18.12
2022-08-08T00:25:44.668Z,18.25
2022-08-08T00:28:35.347Z,18.10
2022-08-08T00:32:14.845Z,18.04
2022-08-08T00:34:24.370Z,17.96
2022-08-08T00:37:47.940Z,17.78
2022-08-08T00:41:11.652Z,17.81
2022-08-08T00:43:40.769Z,17.81
2022-08-08T00:46:58.462Z,17.75
2022-08-08T00:49:58.815Z,17.78
2022-08-08T00:52:51.730Z,17.72
2022-08-08T00:55:53.766Z,17.65
2022-08-08T00:59:18.701Z,17.50
2022-08-08T01:03:58.262Z,17.48
2022-08-08T01:05:59.469Z,17.36
2022-08-08T01:08:32.799Z,17.41
2022-08-08T01:11:31.863Z,17.47
2022-08-08T01:14:54.462Z,17.47
2022-08-08T01:17:51.700Z,17.40
2022-08-08T01:20:38.599Z,17.29
2022-08-08T01:24:05.255Z,17.21
2022-08-08T01:26:57.657Z,17.31
2022-08-08T01:29:59.528Z,17.29
2022-08-08T01:32:32.343Z,17.03
2022-08-08T01:35:30.205Z,16.93
2022-08-08T01:38:34.939Z,16.88
2022-08-08T01:41:34.327Z,16.86
2022-08-08T01:44:07.180Z,16.98
2022-08-08T01:48:15.542Z,16.96
2022-08-08T01:50:53.938Z,16.86
2022-08-08T01:54:19.855Z,16.90
2022-08-08T01:56:46.934Z,16.83
2022-08-08T01:59:19.947Z,16.90
2022-08-08T02:02:07.394Z,16.79
2022-08-08T02:04:48.316Z,16.89
2022-08-08T02:07:49.601Z,16.96
2022-08-08T02:10:44.723Z,16.85
2022-08-08T02:13:53.336Z,16.62
2022-08-08T02:16:58.848Z,16.52
2022-08-08T02:19:58.033Z,16.41
2022-08-08T02:22:54.920Z,16.35
2022-08-08T02:25:43.652Z,16.27
2022-08-08T02:28:34.782Z,16.44
2022-08-08T02:31:57.937Z,16.51
2022-08-08T02:34:09.704Z,16.68
2022-08-08T02:36:58.865Z,16.58
2022-08-08T02:40:00.265Z,16.49
2022-08-08T02:44:34.756Z,16.47
2022-08-08T02:46:08.052Z,16.57
2022-08-08T02:49:02.738Z,16.44
2022-08-08T02:52:02.137Z,16.41
2022-08-08T02:54:44.115Z,16.45
2022-08-08T02:57:45.093Z,16.28
2022-08-08T03:00:41.357Z,16.18
2022-08-08T03:05:00.631Z,16.22
2022-08-08T03:06:40.578Z,15.99
2022-08-08T03:09:54.348Z,15.93
2022-08-08T03:13:02.289Z,15.91
2022-08-08T03:16:02.466Z,15.74
2022-08-08T03:18:52.985Z,15.72
2022-08-08T03:21:19.353Z,15.65
2022-08-08T03:23:59.339Z,15.74
2022-08-08T03:26:32.551Z,15.73
2022-08-08T03:29:16.708Z,15.58
2022-08-08T03:32:08.579Z,15.74
2022-08-08T03:34:37.765Z,15.65
2022-08-08T03:37:20.075Z,15.67
2022-08-08T03:40:02.347Z,15.49
2022-08-08T03:42:31.322Z,15.48
2022-08-08T03:44:58.687Z,15.38
2022-08-08T03:47:39.427Z,15.28
2022-08-08T03:50:20.132Z,15.46
2022-08-08T03:52:51.613Z,15.25
2022-08-08T03:55:57.566Z,15.22
2022-08-08T03:58:34.371Z,15.18
2022-08-08T04:01:01.664Z,15.30
2022-08-08T04:03:58.984Z,15.17
2022-08-08T04:06:29.990Z,15.04
2022-08-08T04:09:10.345Z,15.07
2022-08-08T04:11:58.901Z,15.07
2022-08-08T04:14:34.358Z,15.03
2022-08-08T04:17:04.301Z,14.93
2022-08-08T04:19:36.774Z,15.12
2022-08-08T04:22:04.160Z,15.14
2022-08-08T04:24:31.161Z,15.24
2022-08-08T04:26:59.535Z,15.18
2022-08-08T04:29:26.912Z,15.36
2022-08-08T04:31:58.717Z,15.52
2022-08-08T04:34:31.697Z,15.61
2022-08-08T04:36:59.226Z,15.55
2022-08-08T04:40:04.290Z,15.70
2022-08-08T04:42:15.834Z,15.83
2022-08-08T04:46:11.955Z,15.77
2022-08-08T04:48:41.123Z,15.67
2022-08-08T04:57:19.653Z,15.80
2022-08-08T04:59:48.358Z,15.79
2022-08-08T05:02:14.923Z,15.79
2022-08-08T05:04:49.107Z,15.90
2022-08-08T05:07:16.851Z,15.85
2022-08-08T05:09:43.435Z,15.89
2022-08-08T05:12:10.173Z,15.97
2022-08-08T05:14:47.374Z,16.07
2022-08-08T05:17:15.314Z,16.21
2022-08-08T05:20:12.036Z,16.20
2022-08-08T05:22:28.411Z,16.13
2022-08-08T05:24:56.318Z,16.24
2022-08-08T05:27:23.263Z,16.54
2022-08-08T05:29:52.160Z,16.57
2022-08-08T05:32:19.058Z,16.48
2022-08-08T05:34:53.463Z,16.44
2022-08-08T05:37:49.121Z,16.45
2022-08-08T05:40:17.185Z,16.48
2022-08-08T05:42:46.330Z,16.52
2022-08-08T05:45:25.475Z,16.71
2022-08-08T05:48:08.353Z,16.69
2022-08-08T05:50:38.478Z,16.73
2022-08-08T05:53:54.201Z,16.83
2022-08-08T05:56:09.874Z,16.89
2022-08-08T05:58:53.947Z,16.98
2022-08-08T06:01:55.565Z,17.06
2022-08-08T06:04:22.786Z,17.36
2022-08-08T06:06:56.673Z,17.21
2022-08-08T06:09:58.299Z,17.20
2022-08-08T06:12:30.129Z,17.21
2022-08-08T06:15:00.423Z,17.27
2022-08-08T06:17:32.091Z,17.43
2022-08-08T06:20:16.355Z,17.53
2022-08-08T06:22:42.921Z,17.75
2022-08-08T06:25:10.307Z,17.81
2022-08-08T06:27:52.976Z,17.95
2022-08-08T06:30:26.480Z,18.20
2022-08-08T06:32:58.458Z,18.17
2022-08-08T06:36:06.670Z,18.29
2022-08-08T06:38:21.640Z,18.40
2022-08-08T06:41:04.005Z,18.34
2022-08-08T06:43:37.235Z,18.41
2022-08-08T06:46:05.005Z,18.61
2022-08-08T06:48:36.476Z,18.57
2022-08-08T06:51:07.464Z,18.51
2022-08-08T06:53:40.017Z,18.75
2022-08-08T06:56:19.445Z,18.88
2022-08-08T06:58:49.685Z,19.08
2022-08-08T07:02:16.672Z,19.38
2022-08-08T07:04:39.842Z,19.38
2022-08-08T07:07:02.011Z,19.45
2022-08-08T07:09:56.459Z,19.36
2022-08-08T07:12:41.329Z,19.38
2022-08-08T07:15:32.786Z,19.34
2022-08-08T07:18:35.417Z,19.41
2022-08-08T07:20:57.412Z,19.52
2022-08-08T07:24:01.844Z,19.70
2022-08-08T07:26:31.738Z,19.70
2022-08-08T07:29:06.000Z,19.60
2022-08-08T07:31:36.555Z,19.74
2022-08-08T07:34:09.249Z,20.03
2022-08-08T07:36:42.095Z,20.24
2022-08-08T07:39:22.613Z,20.18
2022-08-08T07:42:04.127Z,20.48
2022-08-08T07:44:37.152Z,20.49
2022-08-08T07:47:05.028Z,20.53
2022-08-08T07:49:32.262Z,20.36
2022-08-08T07:52:01.229Z,20.49
2022-08-08T07:55:01.623Z,20.44
2022-08-08T07:57:48.267Z,20.58
2022-08-08T08:00:17.334Z,20.92
2022-08-08T08:03:01.175Z,21.11
2022-08-08T08:05:33.422Z,21.99
2022-08-08T08:08:21.139Z,22.00
2022-08-08T08:10:55.605Z,23.70
2022-08-08T08:13:42.918Z,24.47
2022-08-08T08:16:32.174Z,23.98
2022-08-08T08:19:10.290Z,24.37
2022-08-08T08:21:52.699Z,24.05
2022-08-08T08:24:30.722Z,23.69
2022-08-08T08:27:02.738Z,23.02
2022-08-08T08:29:29.902Z,23.87
2022-08-08T08:31:58.331Z,23.83
2022-08-08T08:34:32.633Z,24.05
2022-08-08T08:37:07.749Z,24.93
2022-08-08T08:40:00.591Z,25.98
2022-08-08T08:42:31.801Z,25.51
2022-08-08T08:45:22.048Z,25.31
2022-08-08T08:47:54.879Z,24.04
2022-08-08T08:50:33.337Z,24.67
2022-08-08T08:53:55.252Z,24.58
2022-08-08T08:56:01.415Z,24.89
2022-08-08T08:58:37.683Z,26.63
2022-08-08T09:01:10.321Z,27.35
2022-08-08T09:03:46.518Z,27.41
2022-08-08T09:06:33.745Z,27.81
2022-08-08T09:09:19.179Z,30.01
2022-08-08T09:12:07.575Z,30.46
2022-08-08T09:14:35.386Z,29.36
2022-08-08T09:17:09.648Z,27.35
2022-08-08T09:21:58.408Z,26.76
2022-08-08T09:22:28.054Z,27.73
2022-08-08T09:24:56.193Z,29.39
2022-08-08T09:27:56.370Z,30.39
2022-08-08T09:30:14.480Z,30.39
2022-08-08T09:33:01.344Z,29.90
2022-08-08T09:35:38.504Z,29.66
2022-08-08T09:38:29.830Z,29.18
2022-08-08T09:41:05.035Z,28.79
2022-08-08T09:44:03.045Z,29.78
2022-08-08T09:46:30.561Z,30.41
2022-08-08T09:49:18.459Z,31.23
2022-08-08T09:52:07.034Z,31.58
2022-08-08T09:54:45.800Z,31.74
2022-08-08T09:57:17.661Z,32.05
2022-08-08T10:00:14.733Z,31.37
2022-08-08T10:02:42.306Z,29.66
2022-08-08T10:05:22.955Z,29.25
2022-08-08T10:07:52.259Z,28.95
2022-08-08T10:10:36.774Z,29.42
2022-08-08T10:13:32.122Z,28.68
2022-08-08T10:16:02.006Z,28.95
2022-08-08T10:18:35.353Z,30.20
2022-08-08T10:21:24.964Z,30.56
2022-08-08T10:24:02.658Z,32.28
2022-08-08T10:26:56.818Z,33.02
2022-08-08T10:29:24.997Z,33.11
2022-08-08T10:32:20.648Z,32.72
2022-08-08T10:35:01.909Z,30.72
2022-08-08T10:37:30.300Z,31.48
2022-08-08T10:39:59.122Z,30.84
2022-08-08T10:42:34.631Z,29.77
2022-08-08T10:45:09.643Z,30.42
2022-08-08T10:47:43.719Z,32.67
2022-08-08T10:50:10.845Z,31.34
2022-08-08T10:52:43.232Z,32.42
2022-08-08T10:55:39.658Z,34.13
2022-08-08T10:58:07.899Z,33.98
2022-08-08T11:00:48.763Z,33.79
2022-08-08T11:03:37.232Z,32.62
2022-08-08T11:06:12.544Z,33.34
2022-08-08T11:08:53.244Z,34.37
2022-08-08T11:12:00.281Z,34.43
2022-08-08T11:14:08.590Z,32.59
2022-08-08T11:16:46.593Z,33.28
2022-08-08T11:19:15.536Z,33.00
2022-08-08T11:21:54.208Z,30.79
2022-08-08T11:24:27.411Z,32.73
2022-08-08T11:26:57.592Z,32.83
2022-08-08T11:29:41.941Z,34.63
2022-08-08T11:32:14.546Z,32.82
2022-08-08T11:35:08.920Z,30.27
2022-08-08T11:38:35.919Z,31.20
2022-08-08T11:40:22.371Z,30.55
2022-08-08T11:42:54.242Z,30.65
2022-08-08T11:45:21.665Z,31.89
2022-08-08T11:48:05.012Z,32.87
2022-08-08T11:50:33.731Z,32.18
2022-08-08T11:53:05.894Z,32.45
2022-08-08T11:55:39.626Z,32.52
2022-08-08T11:58:15.252Z,32.42
2022-08-08T12:00:47.034Z,30.73
2022-08-08T12:03:47.869Z,29.98
2022-08-08T12:06:16.138Z,31.78
2022-08-08T12:08:43.134Z,33.20
2022-08-08T12:11:14.707Z,33.20
2022-08-08T12:14:03.879Z,33.65
2022-08-08T12:16:39.564Z,32.18
2022-08-08T12:19:13.462Z,32.06
2022-08-08T12:21:58.578Z,32.32
2022-08-08T12:24:28.026Z,32.45
2022-08-08T12:26:58.423Z,32.12
2022-08-08T12:29:40.676Z,32.65
2022-08-08T12:32:19.636Z,32.87
2022-08-08T12:35:04.083Z,34.29
2022-08-08T12:37:40.856Z,33.35
2022-08-08T12:40:24.171Z,34.29
2022-08-08T12:42:52.575Z,33.82
2022-08-08T12:45:59.744Z,32.05
2022-08-08T12:48:36.655Z,32.29
2022-08-08T12:51:07.849Z,31.54
2022-08-08T12:53:58.698Z,31.20
2022-08-08T12:56:39.851Z,31.87
2022-08-08T12:59:45.193Z,32.35
2022-08-08T13:02:28.341Z,33.21
2022-08-08T13:04:59.477Z,33.28
2022-08-08T13:08:03.044Z,33.61
2022-08-08T13:10:36.313Z,34.22
2022-08-08T13:13:05.813Z,33.95
2022-08-08T13:15:35.738Z,34.03
2022-08-08T13:18:11.027Z,34.26
2022-08-08T13:20:48.843Z,33.33
2022-08-08T13:23:41.633Z,33.40
2022-08-08T13:26:14.933Z,30.93
2022-08-08T13:28:42.781Z,32.16
2022-08-08T13:31:16.505Z,32.91
2022-08-08T13:33:47.208Z,33.21
2022-08-08T13:36:14.243Z,32.97
2022-08-08T13:38:41.104Z,32.57
2022-08-08T13:41:15.949Z,32.82
2022-08-08T13:43:46.490Z,33.52
2022-08-08T13:46:26.747Z,32.79
2022-08-08T13:49:11.368Z,33.34
2022-08-08T13:51:41.691Z,34.27
2022-08-08T13:54:21.309Z,33.38
2022-08-08T13:57:00.553Z,32.42
2022-08-08T13:59:39.106Z,33.17
2022-08-08T14:02:14.175Z,33.84
2022-08-08T14:05:09.543Z,34.25
2022-08-08T14:07:49.960Z,34.67
2022-08-08T14:10:33.288Z,34.22
2022-08-08T14:13:20.744Z,34.59
2022-08-08T14:16:15.949Z,33.57
2022-08-08T14:18:57.731Z,33.75
2022-08-08T14:21:49.062Z,32.94
2022-08-08T14:24:33.882Z,33.35
2022-08-08T14:27:01.784Z,33.95
2022-08-08T14:29:34.550Z,34.33
2022-08-08T14:32:11.747Z,33.79
2022-08-08T14:34:42.110Z,33.13
2022-08-08T14:37:10.026Z,32.94
2022-08-08T14:39:53.994Z,32.95
2022-08-08T14:42:36.253Z,33.38
2022-08-08T14:45:10.002Z,33.58
2022-08-08T14:47:57.174Z,33.82
2022-08-08T14:50:38.087Z,33.79
2022-08-08T14:53:15.286Z,33.78
2022-08-08T14:55:43.693Z,33.84
2022-08-08T14:58:16.812Z,32.72
2022-08-08T15:00:46.649Z,33.48
2022-08-08T15:03:16.884Z,33.38
2022-08-08T15:05:54.712Z,33.24
2022-08-08T15:08:33.457Z,33.37
2022-08-08T15:11:00.997Z,33.27
2022-08-08T15:13:27.461Z,33.58
2022-08-08T15:16:11.978Z,33.55
2022-08-08T15:18:50.008Z,33.33
2022-08-08T15:21:18.757Z,33.62
2022-08-08T15:23:51.372Z,32.42
2022-08-08T15:26:20.183Z,32.42
2022-08-08T15:28:50.878Z,32.04
2022-08-08T15:31:55.491Z,31.12
2022-08-08T15:34:07.114Z,31.50
2022-08-08T15:36:35.325Z,32.28
2022-08-08T15:39:03.740Z,32.73
2022-08-08T15:41:43.864Z,32.88
2022-08-08T15:44:13.634Z,32.52
2022-08-08T15:46:45.296Z,32.77
2022-08-08T15:49:12.640Z,31.26
2022-08-08T15:51:43.571Z,30.44
2022-08-08T15:54:37.709Z,31.20
2022-08-08T15:56:56.506Z,31.67
2022-08-08T16:00:25.233Z,32.10
2022-08-08T16:02:14.079Z,31.81
2022-08-08T16:04:41.765Z,31.78
2022-08-08T16:07:08.504Z,31.79
2022-08-08T16:13:04.197Z,31.57
2022-08-08T16:13:20.914Z,31.33
2022-08-08T16:15:08.382Z,31.40
2022-08-08T16:18:05.837Z,31.31
2022-08-08T16:20:25.747Z,31.70
2022-08-08T16:22:55.971Z,31.85
2022-08-08T16:25:22.989Z,31.78
2022-08-08T16:27:58.252Z,31.57
2022-08-08T16:30:32.614Z,31.75
2022-08-08T16:33:03.158Z,31.74
2022-08-08T16:35:29.666Z,31.84
2022-08-08T16:37:56.371Z,31.29
2022-08-08T16:40:23.882Z,31.71
2022-08-08T16:42:55.772Z,32.02
2022-08-08T16:46:37.894Z,30.99
2022-08-08T16:48:09.043Z,30.55
2022-08-08T16:50:35.470Z,30.93
2022-08-08T16:55:02.585Z,31.42
2022-08-08T16:55:56.003Z,31.42
2022-08-08T16:58:26.285Z,31.02
2022-08-08T17:00:54.977Z,30.53
2022-08-08T17:03:25.148Z,30.34
2022-08-08T17:06:37.448Z,30.42
2022-08-08T17:08:57.640Z,30.45
2022-08-08T17:11:27.980Z,30.86
2022-08-08T17:14:06.003Z,30.82
2022-08-08T17:16:44.437Z,30.34
2022-08-08T17:19:24.502Z,30.46
2022-08-08T17:21:51.124Z,30.39
2022-08-08T17:24:26.919Z,30.23
2022-08-08T17:26:54.869Z,30.20
2022-08-08T17:29:24.873Z,29.95
2022-08-08T17:31:51.809Z,30.07
2022-08-08T17:34:49.419Z,29.83
2022-08-08T17:37:09.101Z,29.30
2022-08-08T17:40:03.321Z,29.32
2022-08-08T17:42:23.468Z,28.95
2022-08-08T17:44:52.258Z,28.99
2022-08-08T17:47:37.710Z,28.95
2022-08-08T17:50:07.305Z,28.88
2022-08-08T17:52:35.355Z,28.56
2022-08-08T17:55:05.710Z,28.30
2022-08-08T17:57:50.237Z,28.12
2022-08-08T18:00:19.534Z,28.14
2022-08-08T18:03:07.372Z,28.13
2022-08-08T18:05:47.875Z,28.04
2022-08-08T18:08:25.227Z,27.78
2022-08-08T18:11:03.179Z,27.79
2022-08-08T18:13:29.791Z,27.54
2022-08-08T18:16:04.660Z,27.62
2022-08-08T18:18:36.023Z,27.45
2022-08-08T18:21:10.775Z,27.27
2022-08-08T18:23:55.857Z,27.18
2022-08-08T18:26:22.720Z,27.03
2022-08-08T18:28:54.246Z,26.90
2022-08-08T18:31:21.992Z,26.72
2022-08-08T18:34:25.604Z,26.69
2022-08-08T18:36:36.046Z,26.52
2022-08-08T18:39:02.773Z,26.43
2022-08-08T18:41:51.421Z,26.26
2022-08-08T18:44:15.997Z,26.14
2022-08-08T18:46:55.861Z,26.07
2022-08-08T18:49:24.569Z,25.74
2022-08-08T18:51:59.355Z,25.68
2022-08-08T18:54:29.922Z,25.57
2022-08-08T18:56:57.469Z,25.49
2022-08-08T18:59:24.371Z,25.31
2022-08-08T19:02:26.217Z,25.46
2022-08-08T19:04:42.165Z,25.29
2022-08-08T19:07:10.604Z,25.26
2022-08-08T19:09:48.792Z,25.15
2022-08-08T19:12:26.617Z,24.99
2022-08-08T19:14:53.476Z,24.89
2022-08-08T19:17:28.685Z,24.83
2022-08-08T19:20:02.867Z,24.78
2022-08-08T19:22:29.741Z,24.82
2022-08-08T19:26:01.473Z,24.79
2022-08-08T19:27:55.560Z,24.79
2022-08-08T19:30:24.580Z,24.62
2022-08-08T19:32:53.630Z,24.61
2022-08-08T19:35:25.729Z,24.53
2022-08-08T19:38:06.810Z,24.47
2022-08-08T19:40:37.562Z,24.49
2022-08-08T19:43:11.688Z,24.53
2022-08-08T19:45:58.329Z,24.55
2022-08-08T19:48:29.486Z,24.32
2022-08-08T19:50:59.092Z,24.31
2022-08-08T19:53:53.092Z,24.28
2022-08-08T19:56:16.446Z,24.23
2022-08-08T19:58:51.682Z,24.18
2022-08-08T20:01:22.742Z,24.11
2022-08-08T20:04:01.088Z,24.03
2022-08-08T20:06:29.268Z,24.05
2022-08-08T20:08:56.800Z,23.93
2022-08-08T20:11:24.572Z,23.79
2022-08-08T20:14:31.644Z,23.82
2022-08-08T20:16:40.551Z,23.89
2022-08-08T20:19:07.110Z,23.77
2022-08-08T20:21:37.307Z,23.79
2022-08-08T20:24:05.631Z,23.80
2022-08-08T20:26:33.774Z,23.76
2022-08-08T20:29:03.013Z,23.67
2022-08-08T20:32:06.896Z,23.63
2022-08-08T20:34:30.378Z,23.58
2022-08-08T20:37:00.305Z,23.39
2022-08-08T20:39:39.559Z,23.36
2022-08-08T20:42:13.636Z,23.29
2022-08-08T20:44:40.335Z,23.36
2022-08-08T20:47:15.677Z,23.25
2022-08-08T20:49:46.962Z,22.98
2022-08-08T20:52:16.507Z,22.98
2022-08-08T20:54:44.225Z,22.91
2022-08-08T20:57:17.009Z,22.99
2022-08-08T20:59:46.860Z,22.99
2022-08-08T21:02:25.606Z,22.94
2022-08-08T21:04:57.447Z,22.85
2022-08-08T21:07:47.150Z,22.73
2022-08-08T21:10:16.494Z,22.70
2022-08-08T21:12:44.684Z,22.76
2022-08-08T21:15:16.285Z,22.54
2022-08-08T21:17:43.204Z,22.27
2022-08-08T21:20:11.883Z,22.33
2022-08-08T21:22:38.534Z,22.05
2022-08-08T21:25:10.690Z,22.13
2022-08-08T21:28:14.326Z,22.10
2022-08-08T21:30:26.714Z,22.00
2022-08-08T21:32:56.667Z,21.99
2022-08-08T21:36:16.280Z,21.86
2022-08-08T21:38:16.224Z,21.81
2022-08-08T21:40:56.186Z,21.96
2022-08-08T21:43:33.478Z,21.95
2022-08-08T21:48:07.162Z,21.85
2022-08-08T21:48:54.329Z,21.74
2022-08-08T21:54:17.428Z,21.72
2022-08-08T21:54:33.039Z,21.85
2022-08-08T21:56:59.316Z,21.95
2022-08-08T21:59:26.602Z,22.02
2022-08-08T22:02:10.921Z,21.86
2022-08-08T22:04:39.145Z,21.88
2022-08-08T22:07:05.712Z,21.81
2022-08-08T22:09:37.224Z,21.83
2022-08-08T22:12:09.612Z,21.55
2022-08-08T22:14:36.553Z,21.37
2022-08-08T22:17:03.786Z,21.52
2022-08-08T22:20:12.657Z,21.50
2022-08-08T22:22:18.070Z,21.48
2022-08-08T22:24:45.293Z,21.23
2022-08-08T22:27:12.009Z,21.38
2022-08-08T22:30:02.416Z,21.32
2022-08-08T22:32:28.473Z,21.27
2022-08-08T22:34:54.910Z,21.20
2022-08-08T22:37:48.911Z,21.06
2022-08-08T22:40:11.699Z,21.17
2022-08-08T22:42:47.111Z,21.16
2022-08-08T22:45:15.399Z,20.99
2022-08-08T22:47:46.837Z,21.00
2022-08-08T22:50:25.874Z,20.83
2022-08-08T22:53:22.487Z,20.93
2022-08-08T22:55:57.890Z,20.96
2022-08-08T22:58:28.794Z,20.90
2022-08-08T23:00:59.719Z,20.96
2022-08-08T23:03:34.413Z,20.86
2022-08-08T23:06:12.834Z,20.55
2022-08-08T23:08:44.615Z,20.46
2022-08-08T23:11:23.141Z,20.42
2022-08-08T23:14:01.089Z,20.56
2022-08-08T23:16:42.125Z,20.42
2022-08-08T23:19:10.079Z,20.38
2022-08-08T23:21:38.035Z,19.95
2022-08-08T23:24:06.513Z,20.13
2022-08-08T23:26:34.214Z,20.29
2022-08-08T23:29:01.493Z,20.34
2022-08-08T23:31:28.047Z,20.44
2022-08-08T23:34:17.596Z,20.32
2022-08-08T23:36:40.989Z,20.14
2022-08-08T23:39:09.073Z,20.26
2022-08-08T23:41:45.546Z,20.21
2022-08-08T23:44:13.144Z,19.97
2022-08-08T23:48:59.780Z,19.83
2022-08-08T23:49:26.206Z,19.93
2022-08-08T23:52:06.496Z,20.11
2022-08-08T23:54:42.478Z,20.03
2022-08-08T23:57:26.582Z,19.90
